Terminal Aerodrome Forecast
Issued by NWS

Home | Current Version | Previous Version | Text Only | Print | Product List | Glossary On
Versions: 1 2 3 4 5 6 7 8 9 10 11 12
958
FTUS46 KSGX 070520
TAFCRQ
TAF
KCRQ 070520Z 0706/0806 VRB04KT P6SM SKC
     FM071200 06009KT P6SM SKC
     FM071900 27007KT P6SM SKC
     FM080100 VRB03KT P6SM SKC=

USA.gov is the U.S. government's official web portal to all federal, state and local government web resources and services.